Decoded Metar for OIII (TEHERAN in IRAN) (IATA:THR) | Meteo·Mobile Aviation Weather
aviador You're here:

OIII Decoded Metar

TEHERAN in IRAN
Report Time2018-09-18 13:00:00
UTC Time2018-09-18 13:24:19
Flight Rules vfr VFR
Wind240° at 14 kt
W.Decomp.*RWY 29: 8.4 kt HW 11.2 kt LCW
W.Rank240° ranks 4
Current wind is above 240° avg. (7.7)
Visibility9999 m
Phenomena:N/A
Clouds:Few CB 035 Hf
Few TCU 040 Hf
Scattered 090 Hf
Scattered 100 Hf
Broken 180 Hf
Expected CloudBase > 12,800 ft AGL from Temp-Dew spread
Ceiling18,000 ft
Temp33°C (ISA +26)
Dew Point01°C (13% RH)
Heat Index30.6°C
AAT26.1°C
QNH1014 hPa
Density Alt6,867 ft
Elevation3,907 ft
Report Wrong Elevation
Raw Report
OIII 181300Z 24014KT 9999 FEW040TCU SCT100 BKN180 33/01 Q1014
A2997 TEMPO FEW035CB SCT090 BKN170=

Extra information for OIII:More info

Metar Taf Metar & Taf Last 4 Metars F.Rules Stats Wind Profile Meteogram Temp Stats Airport Information Weather charts Add Link Nearby VenuesMetar ALERT Operation Metar Decoded Social comments